Terminal Aerodrome Forecast
Issued by NWS

Home | Current Version | Previous Version | Text Only | Print | Product List | Glossary Off
Versions: 1 2 3 4 5 6 7 8 9 10 11 12 13

045
FTUS43 KICT 130520
TAFCNU
TAF
KCNU 130520Z 1306/1406 03009KT P6SM BKN100
     FM131500 08008KT P6SM SCT250
     FM140300 11007KT P6SM BKN070=

USA.gov is the U.S. government's official web portal to all federal, state and local government web resources and services.